Meteo Giornale » Osservazioni meteo Messico » Mexico City-Licenci

ore: 08:07 - Osservazioni Meteo Mexico City-Licenci
Lat. 19° 26' N Lon. 99° 6' W Alt. 2238 metri s.l.m.

sereno America/Mexico_City

11 °C

Sereno

Temp. 24 Ore

9 °C

22 °C

Nord/Nord-Est

7.4 Km/h

Dew point 7 °C

Umidità 76 %

Visibilità  10 Km

Il sole sorge alle ore 07:12

Il sole tramonta alle ore 18:21

Data e Ora Cielo e Fenomeni T °C DP °C Um. % Pres. hPa Vis. km Vento km/h
Oggi h: 08:07 sereno Sereno 11 7 76 1029 10 N/NE 7.4
Oggi h: 07:43 poco_nuvoloso Poco Nuvoloso 9 6 81 1028 11 E/NE 13
Oggi h: 06:45 molto_nuvoloso Molto Nuvoloso 11 6 71 1028 11 E 7.4
Oggi h: 05:45 molto_nuvoloso Molto Nuvoloso 10 5 71 1027 11 E/NE 11.1
Oggi h: 04:43 molto_nuvoloso Molto Nuvoloso 11 7 76 1027 11 NE 7.4
Oggi h: 03:43 nuvoloso Nuvoloso 11 8 81 1027 13 N 5.5
Oggi h: 02:45 nuvoloso Nuvoloso 12 8 76 1028 13 E/NE 7.4
Oggi h: 01:43 nuvoloso Nuvoloso 13 7 66 1028 13 N 5.5
Oggi h: 00:44 nuvoloso Nuvoloso 15 7 58 1028 14 O 7.4
Ieri h: 23:47 nuvoloso Nuvoloso 15 7 58 1028 10 N 3.7
Ieri h: 22:45 molto_nuvoloso Molto Nuvoloso 17 5 45 1028 10 O/NO 14.8
Ieri h: 21:45 molto_nuvoloso Molto Nuvoloso 18 4 39 1028 10 O/NO 11.1
Ieri h: 20:46 nuvoloso Nuvoloso 17 4 41 1027 18 S/SE 7.4
Ieri h: 19:52 nuvoloso Nuvoloso 18 4 39 1027 18 S 11.1
Ieri h: 18:50 molto_nuvoloso Molto Nuvoloso 19 3 34 1026 18 SO 11.1
Ieri h: 17:54 molto_nuvoloso Molto Nuvoloso 20 2 30 1025 18 N 5.5
Ieri h: 16:50 molto_nuvoloso Molto Nuvoloso 21 1 26 1025 18 S 14.8
Ieri h: 15:50 molto_nuvoloso Molto Nuvoloso 22 0 23 1025 10 SE 14.8
Ieri h: 14:54 molto_nuvoloso Molto Nuvoloso 22 3 28 1025 14 E 14.8
Ieri h: 13:50 molto_nuvoloso Molto Nuvoloso 21 3 30 1026 13 N 5.5
Ieri h: 12:40 nuvoloso Nuvoloso 21 3 30 1028 13 N 0
Ieri h: 11:51 nuvoloso Nuvoloso 19 5 39 1029 10 E 7.4
Ieri h: 11:22 nuvoloso Nuvoloso 18 7 48 1030 10 N/NE 7.4
Ieri h: 10:51 nuvoloso Nuvoloso 16 7 55 1030 10 N 5.5
Ieri h: 10:34 nuvoloso Nuvoloso 16 7 55 1030 10 N 5.5
Ieri h: 09:49 nuvoloso Nuvoloso 14 8 67 1030 10 N 5.5
Ieri h: 09:48 nuvoloso Nuvoloso 14 8 67 1030 10 N 0
Ieri h: 08:49 poco_nuvoloso Poco Nuvoloso 11 7 76 1030 10 E 11.1
Ieri h: 07:48 sereno Sereno 10 7 81 1029 11 E/NE 11.1